createdAt,value
2023-02-19T00:01:51.658Z,0.60
2023-02-19T00:04:08.190Z,0.90
2023-02-19T00:06:21.820Z,1.00
2023-02-19T00:08:36.001Z,1.10
2023-02-19T00:10:52.156Z,1.10
2023-02-19T00:13:06.324Z,0.80
2023-02-19T00:15:19.447Z,1.50
2023-02-19T00:17:33.994Z,1.20
2023-02-19T00:19:47.389Z,1.20
2023-02-19T00:22:00.509Z,1.40
2023-02-19T00:24:14.904Z,1.90
2023-02-19T00:26:28.847Z,1.60
2023-02-19T00:28:42.051Z,1.80
2023-02-19T00:30:54.895Z,1.90
2023-02-19T00:33:08.401Z,1.80
2023-02-19T00:35:21.147Z,1.40
2023-02-19T00:37:33.711Z,1.80
2023-02-19T00:39:46.225Z,1.40
2023-02-19T00:42:00.481Z,1.20
2023-02-19T00:44:18.066Z,2.00
2023-02-19T00:46:36.145Z,1.40
2023-02-19T00:48:48.982Z,1.60
2023-02-19T00:51:01.611Z,1.40
2023-02-19T00:53:14.579Z,1.20
2023-02-19T00:55:27.603Z,2.00
2023-02-19T00:57:40.708Z,1.80
2023-02-19T00:59:53.819Z,1.70
2023-02-19T01:02:07.763Z,2.00
2023-02-19T01:04:21.209Z,2.10
2023-02-19T01:06:34.100Z,2.00
2023-02-19T01:08:47.672Z,1.70
2023-02-19T01:11:01.609Z,2.50
2023-02-19T01:13:14.369Z,2.50
2023-02-19T01:15:27.276Z,2.50
2023-02-19T01:17:41.183Z,2.00
2023-02-19T01:19:54.077Z,1.90
2023-02-19T01:22:06.619Z,1.70
2023-02-19T01:24:19.749Z,1.60
2023-02-19T01:26:39.374Z,1.30
2023-02-19T01:28:53.782Z,1.70
2023-02-19T01:31:11.070Z,1.80
2023-02-19T01:33:25.414Z,2.10
2023-02-19T01:35:41.721Z,1.90
2023-02-19T01:37:55.734Z,2.20
2023-02-19T01:40:09.242Z,2.20
2023-02-19T01:42:26.811Z,1.70
2023-02-19T01:45:28.205Z,2.00
2023-02-19T01:47:42.318Z,2.00
2023-02-19T01:50:01.801Z,2.40
2023-02-19T01:52:19.278Z,2.30
2023-02-19T01:54:35.691Z,2.70
2023-02-19T01:56:51.828Z,2.60
2023-02-19T01:59:06.606Z,1.70
2023-02-19T02:01:20.067Z,1.90
2023-02-19T02:03:36.070Z,2.70
2023-02-19T02:05:53.669Z,2.70
2023-02-19T02:08:25.070Z,2.10
2023-02-19T02:10:40.301Z,2.10
2023-02-19T02:12:56.149Z,2.60
2023-02-19T02:15:13.313Z,2.80
2023-02-19T02:17:33.442Z,2.90
2023-02-19T02:20:21.284Z,3.40
2023-02-19T02:22:38.308Z,3.20
2023-02-19T02:25:30.854Z,2.90
2023-02-19T02:27:57.688Z,2.70
2023-02-19T02:30:41.437Z,3.30
2023-02-19T02:33:05.193Z,2.80
2023-02-19T02:35:22.009Z,2.60
2023-02-19T02:37:39.006Z,2.90
2023-02-19T02:39:54.407Z,3.10
2023-02-19T02:42:25.327Z,2.70
2023-02-19T02:45:04.560Z,2.30
2023-02-19T02:47:33.102Z,3.00
2023-02-19T02:50:06.281Z,2.50
2023-02-19T02:52:40.061Z,2.90
2023-02-19T02:55:09.817Z,2.80
2023-02-19T02:57:24.160Z,3.10
2023-02-19T02:59:43.773Z,2.70
2023-02-19T03:02:15.677Z,3.60
2023-02-19T03:04:32.888Z,3.30
2023-02-19T03:06:50.284Z,3.00
2023-02-19T03:09:10.064Z,3.20
2023-02-19T03:11:39.267Z,4.10
2023-02-19T03:14:19.820Z,3.20
2023-02-19T03:16:51.419Z,3.40
2023-02-19T03:19:26.618Z,3.50
2023-02-19T03:21:44.356Z,4.10
2023-02-19T03:24:13.477Z,4.00
2023-02-19T03:26:29.008Z,3.80
2023-02-19T03:29:00.335Z,4.10
2023-02-19T03:31:19.254Z,4.80
2023-02-19T03:33:35.342Z,2.90
2023-02-19T03:35:54.630Z,3.90
2023-02-19T03:38:12.720Z,3.50
2023-02-19T03:40:30.000Z,3.90
2023-02-19T03:42:55.845Z,3.70
2023-02-19T03:45:37.823Z,4.40
2023-02-19T03:47:57.886Z,3.90
2023-02-19T03:50:18.766Z,4.30
2023-02-19T03:52:42.480Z,4.50
2023-02-19T03:55:01.819Z,4.10
2023-02-19T03:57:24.221Z,3.90
2023-02-19T03:59:46.884Z,3.60
2023-02-19T04:02:04.676Z,4.00
2023-02-19T04:04:22.257Z,4.60
2023-02-19T04:06:37.423Z,4.60
2023-02-19T04:08:55.832Z,4.70
2023-02-19T04:11:10.079Z,5.20
2023-02-19T04:13:30.878Z,5.70
2023-02-19T04:15:48.472Z,4.60
2023-02-19T04:18:04.190Z,4.90
2023-02-19T04:20:20.537Z,5.10
2023-02-19T04:22:34.514Z,4.10
2023-02-19T04:24:51.197Z,4.70
2023-02-19T04:27:04.552Z,4.80
2023-02-19T04:29:17.607Z,4.80
2023-02-19T04:31:36.211Z,4.60
2023-02-19T04:33:51.313Z,4.90
2023-02-19T04:36:05.877Z,4.50
2023-02-19T04:38:19.388Z,4.80
2023-02-19T04:40:32.346Z,4.40
2023-02-19T04:42:45.986Z,4.90
2023-02-19T04:45:00.036Z,4.60
2023-02-19T04:47:13.608Z,4.60
2023-02-19T04:49:27.403Z,4.60
2023-02-19T04:51:40.668Z,4.70
2023-02-19T04:53:55.112Z,5.60
2023-02-19T04:56:14.370Z,4.60
2023-02-19T04:58:28.199Z,5.40
2023-02-19T05:00:41.431Z,4.40
2023-02-19T05:02:54.428Z,4.90
2023-02-19T05:05:07.583Z,5.20
2023-02-19T05:07:23.194Z,5.50
2023-02-19T05:09:36.349Z,5.10
2023-02-19T05:11:49.581Z,5.00
2023-02-19T05:14:05.218Z,4.70
2023-02-19T05:16:22.514Z,4.40
2023-02-19T05:18:36.272Z,5.60
2023-02-19T05:20:48.903Z,5.30
2023-02-19T05:23:02.169Z,5.20
2023-02-19T05:25:15.334Z,4.40
2023-02-19T05:27:28.929Z,5.00
2023-02-19T05:29:41.500Z,5.20
2023-02-19T05:31:54.114Z,6.40
2023-02-19T05:34:07.653Z,5.30
2023-02-19T05:36:22.680Z,5.60
2023-02-19T05:38:35.556Z,5.80
2023-02-19T05:40:49.306Z,5.70
2023-02-19T05:43:01.807Z,5.20
2023-02-19T05:45:15.544Z,5.00
2023-02-19T05:47:29.142Z,5.20
2023-02-19T05:49:41.638Z,4.90
2023-02-19T05:51:55.999Z,5.20
2023-02-19T05:54:09.371Z,5.20
2023-02-19T05:56:34.492Z,4.40
2023-02-19T05:58:48.502Z,4.90
2023-02-19T06:01:02.479Z,5.00
2023-02-19T06:03:16.367Z,4.90
2023-02-19T06:05:29.339Z,4.20
2023-02-19T06:07:43.829Z,3.60
2023-02-19T06:10:00.806Z,4.70
2023-02-19T06:12:14.599Z,4.10
2023-02-19T06:14:29.649Z,4.10
2023-02-19T06:16:43.971Z,4.50
2023-02-19T06:18:57.915Z,4.20
2023-02-19T06:21:13.261Z,4.50
2023-02-19T06:23:26.388Z,4.50
2023-02-19T06:25:39.033Z,4.70
2023-02-19T06:27:52.134Z,4.90
2023-02-19T06:30:06.302Z,4.40
2023-02-19T06:32:19.293Z,4.80
2023-02-19T06:34:33.787Z,4.70
2023-02-19T06:36:47.795Z,5.50
2023-02-19T06:39:06.669Z,4.30
2023-02-19T06:41:21.333Z,4.50
2023-02-19T06:43:35.340Z,4.80
2023-02-19T06:45:49.085Z,4.70
2023-02-19T06:48:02.346Z,4.50
2023-02-19T06:50:16.605Z,5.90
2023-02-19T06:52:30.144Z,4.90
2023-02-19T06:54:43.416Z,4.30
2023-02-19T06:57:00.157Z,5.10
2023-02-19T06:59:17.896Z,5.10
2023-02-19T07:01:31.884Z,6.10
2023-02-19T07:03:46.204Z,4.20
2023-02-19T07:06:05.433Z,4.20
2023-02-19T07:08:19.792Z,4.20
2023-02-19T07:10:33.771Z,5.20
2023-02-19T07:12:47.130Z,4.40
2023-02-19T07:15:01.603Z,5.40
2023-02-19T07:17:15.002Z,5.00
2023-02-19T07:19:27.912Z,4.80
2023-02-19T07:21:40.460Z,4.40
2023-02-19T07:23:54.858Z,4.20
2023-02-19T07:26:08.814Z,5.00
2023-02-19T07:28:22.096Z,5.40
2023-02-19T07:30:38.588Z,4.40
2023-02-19T07:32:51.305Z,3.90
2023-02-19T07:35:04.385Z,4.10
2023-02-19T07:37:17.805Z,4.70
2023-02-19T07:39:31.584Z,5.20
2023-02-19T07:41:45.485Z,4.90
2023-02-19T07:44:10.839Z,4.50
2023-02-19T07:46:24.110Z,4.70
2023-02-19T07:48:38.167Z,4.20
2023-02-19T07:50:57.220Z,4.50
2023-02-19T07:53:10.958Z,4.60
2023-02-19T07:55:24.255Z,6.10
2023-02-19T07:57:37.101Z,7.50
2023-02-19T07:59:50.833Z,5.30
2023-02-19T08:02:20.578Z,4.50
2023-02-19T08:04:33.228Z,4.40
2023-02-19T08:06:46.690Z,3.80
2023-02-19T08:08:59.578Z,4.70
2023-02-19T08:11:30.486Z,6.00
2023-02-19T08:13:44.095Z,5.00
2023-02-19T08:16:16.076Z,5.00
2023-02-19T08:18:32.051Z,4.20
2023-02-19T08:20:44.634Z,4.30
2023-02-19T08:22:57.230Z,4.30
2023-02-19T08:25:11.288Z,4.10
2023-02-19T08:27:23.987Z,4.40
2023-02-19T08:29:36.943Z,4.30
2023-02-19T08:31:50.107Z,4.60
2023-02-19T08:34:03.880Z,3.80
2023-02-19T08:36:17.997Z,4.70
2023-02-19T08:38:31.172Z,3.90
2023-02-19T08:40:44.671Z,4.90
2023-02-19T08:42:57.399Z,4.60
2023-02-19T08:45:11.230Z,5.00
2023-02-19T08:47:24.003Z,4.10
2023-02-19T08:49:36.638Z,4.60
2023-02-19T08:51:49.150Z,4.30
2023-02-19T08:54:01.891Z,4.40
2023-02-19T08:56:15.992Z,4.80
2023-02-19T08:58:29.097Z,5.40
2023-02-19T09:00:41.903Z,5.00
2023-02-19T09:02:54.876Z,4.60
2023-02-19T09:05:09.356Z,4.60
2023-02-19T09:07:24.229Z,4.30
2023-02-19T09:09:39.899Z,4.90
2023-02-19T09:11:53.083Z,5.30
2023-02-19T09:14:08.522Z,4.50
2023-02-19T09:16:22.217Z,4.00
2023-02-19T09:18:36.837Z,4.40
2023-02-19T09:20:50.542Z,3.80
2023-02-19T09:23:09.179Z,4.00
2023-02-19T09:25:22.758Z,4.00
2023-02-19T09:27:36.193Z,4.50
2023-02-19T09:29:49.676Z,4.90
2023-02-19T09:32:05.316Z,3.80
2023-02-19T09:34:18.961Z,5.00
2023-02-19T09:36:32.081Z,4.50
2023-02-19T09:38:46.225Z,5.10
2023-02-19T09:40:59.630Z,4.30
2023-02-19T09:43:20.454Z,4.10
2023-02-19T09:45:34.362Z,5.10
2023-02-19T09:47:50.270Z,5.20
2023-02-19T09:50:08.698Z,4.70
2023-02-19T09:52:29.437Z,4.40
2023-02-19T09:54:43.991Z,4.50
2023-02-19T09:56:58.248Z,4.00
2023-02-19T09:59:21.880Z,5.30
2023-02-19T10:01:43.164Z,4.20
2023-02-19T10:03:57.300Z,4.70
2023-02-19T10:06:18.002Z,5.20
2023-02-19T10:08:35.117Z,4.30
2023-02-19T10:10:49.868Z,4.40
2023-02-19T10:13:14.909Z,4.10
2023-02-19T10:15:33.173Z,4.60
2023-02-19T10:17:46.721Z,4.70
2023-02-19T10:19:59.997Z,6.00
2023-02-19T10:22:15.192Z,4.40
2023-02-19T10:24:33.464Z,6.30
2023-02-19T10:26:46.676Z,4.90
2023-02-19T10:29:00.401Z,3.60
2023-02-19T10:31:22.416Z,4.10
2023-02-19T10:33:51.084Z,4.50
2023-02-19T10:36:06.797Z,4.10
2023-02-19T10:38:24.757Z,4.50
2023-02-19T10:40:39.146Z,4.20
2023-02-19T10:42:56.698Z,4.50
2023-02-19T10:45:20.240Z,3.90
2023-02-19T10:47:36.923Z,4.20
2023-02-19T10:49:51.712Z,4.90
2023-02-19T10:52:18.858Z,5.10
2023-02-19T10:54:36.669Z,4.50
2023-02-19T10:56:50.347Z,4.50
2023-02-19T10:59:31.283Z,4.60
2023-02-19T11:01:56.255Z,4.70
2023-02-19T11:04:23.746Z,5.00
2023-02-19T11:06:36.968Z,4.60
2023-02-19T11:09:02.173Z,4.20
2023-02-19T11:11:24.481Z,4.50
2023-02-19T11:13:39.164Z,4.00
2023-02-19T11:15:58.401Z,5.10
2023-02-19T11:18:24.823Z,5.00
2023-02-19T11:20:38.794Z,4.10
2023-02-19T11:22:52.708Z,4.20
2023-02-19T11:25:11.482Z,6.20
2023-02-19T11:27:28.469Z,4.80
2023-02-19T11:29:45.601Z,5.50
2023-02-19T11:32:00.207Z,4.80
2023-02-19T11:34:32.358Z,4.80
2023-02-19T11:36:46.767Z,4.40
2023-02-19T11:39:01.201Z,4.30
2023-02-19T11:41:26.159Z,4.70
2023-02-19T11:43:57.298Z,4.60
2023-02-19T11:46:17.150Z,4.40
2023-02-19T11:48:45.225Z,4.20
2023-02-19T11:51:08.837Z,4.80
2023-02-19T11:53:27.369Z,4.40
2023-02-19T11:55:55.577Z,5.00
2023-02-19T11:58:21.150Z,4.90
2023-02-19T12:00:34.652Z,5.10
2023-02-19T12:03:12.584Z,4.90
2023-02-19T12:05:39.024Z,4.90
2023-02-19T12:08:22.028Z,5.40
2023-02-19T12:10:48.331Z,4.80
2023-02-19T12:13:14.587Z,5.10
2023-02-19T12:16:02.494Z,5.20
2023-02-19T12:18:56.661Z,5.20
2023-02-19T12:21:23.883Z,5.00
2023-02-19T12:23:57.706Z,4.80
2023-02-19T12:26:21.363Z,5.40
2023-02-19T12:29:03.135Z,5.30
2023-02-19T12:31:37.720Z,5.60
2023-02-19T12:34:11.901Z,5.20
2023-02-19T12:36:31.614Z,5.80
2023-02-19T12:38:54.148Z,5.50
2023-02-19T12:43:29.424Z,5.50
2023-02-19T12:45:47.906Z,5.50
2023-02-19T12:48:09.472Z,5.20
2023-02-19T12:50:27.492Z,6.50
2023-02-19T12:52:44.753Z,5.80
2023-02-19T12:55:02.058Z,5.20
2023-02-19T12:57:18.901Z,5.10
2023-02-19T12:59:38.482Z,5.70
2023-02-19T13:01:59.900Z,4.50
2023-02-19T13:04:31.226Z,4.50
2023-02-19T13:06:48.714Z,4.50
2023-02-19T13:09:07.855Z,3.80
2023-02-19T13:11:26.630Z,4.30
2023-02-19T13:13:44.914Z,4.20
2023-02-19T13:15:59.837Z,4.70
2023-02-19T13:18:22.914Z,4.10
2023-02-19T13:20:39.005Z,5.10
2023-02-19T13:23:15.764Z,4.90
2023-02-19T13:25:40.156Z,4.80
2023-02-19T13:28:16.347Z,4.60
2023-02-19T13:30:51.211Z,4.20
2023-02-19T13:33:17.892Z,4.30
2023-02-19T13:35:56.020Z,4.60
2023-02-19T13:38:13.483Z,4.70
2023-02-19T13:40:36.149Z,4.10
2023-02-19T13:42:57.818Z,4.30
2023-02-19T13:45:24.863Z,4.70
2023-02-19T13:48:02.399Z,5.20
2023-02-19T13:50:24.204Z,4.20
2023-02-19T13:52:45.432Z,4.20
2023-02-19T13:55:18.411Z,6.00
2023-02-19T13:57:35.308Z,5.40
2023-02-19T13:59:49.592Z,4.70
2023-02-19T14:02:28.541Z,5.80
2023-02-19T14:04:54.058Z,5.30
2023-02-19T14:07:48.135Z,5.30
2023-02-19T14:10:02.905Z,5.10
2023-02-19T14:12:33.897Z,4.90
2023-02-19T14:14:47.389Z,5.60
2023-02-19T14:17:05.991Z,4.90
2023-02-19T14:19:41.823Z,5.40
2023-02-19T14:21:55.616Z,5.50
2023-02-19T14:24:13.114Z,4.60
2023-02-19T14:26:25.962Z,5.30
2023-02-19T14:28:47.742Z,4.80
2023-02-19T14:33:18.729Z,5.20
2023-02-19T14:35:38.098Z,6.40
2023-02-19T14:37:51.334Z,4.90
2023-02-19T14:40:05.706Z,5.60
2023-02-19T14:42:26.128Z,5.30
2023-02-19T14:44:50.280Z,4.50
2023-02-19T14:47:07.582Z,4.50
2023-02-19T14:49:24.498Z,5.10
2023-02-19T14:51:42.482Z,5.60
2023-02-19T14:53:56.820Z,5.90
2023-02-19T14:56:19.717Z,5.60
2023-02-19T14:58:37.999Z,5.80
2023-02-19T15:00:51.987Z,5.90
2023-02-19T15:03:06.892Z,5.40
2023-02-19T15:05:26.953Z,5.20
2023-02-19T15:07:40.391Z,5.60
2023-02-19T15:09:58.063Z,5.90
2023-02-19T15:12:17.296Z,6.00
2023-02-19T15:14:33.496Z,5.10
2023-02-19T15:16:46.626Z,5.30
2023-02-19T15:19:03.995Z,5.50
2023-02-19T15:21:29.604Z,5.20
2023-02-19T15:23:45.908Z,5.50
2023-02-19T15:26:00.000Z,5.30
2023-02-19T15:28:35.487Z,4.90
2023-02-19T15:30:49.362Z,5.30
2023-02-19T15:33:07.001Z,4.50
2023-02-19T15:35:28.473Z,4.70
2023-02-19T15:37:43.656Z,5.40
2023-02-19T15:39:58.685Z,5.00
2023-02-19T15:42:13.919Z,5.30
2023-02-19T15:44:40.752Z,5.30
2023-02-19T15:46:53.884Z,5.20
2023-02-19T15:49:11.431Z,4.90
2023-02-19T15:51:31.040Z,6.60
2023-02-19T15:53:48.780Z,5.10
2023-02-19T15:56:07.142Z,4.10
2023-02-19T15:58:26.061Z,4.70
2023-02-19T16:00:44.954Z,4.80
2023-02-19T16:02:57.886Z,5.00
2023-02-19T16:05:19.110Z,4.50
2023-02-19T16:07:34.826Z,4.40
2023-02-19T16:09:48.397Z,4.00
2023-02-19T16:12:03.319Z,4.80
2023-02-19T16:14:36.186Z,5.30
2023-02-19T16:16:52.502Z,5.50
2023-02-19T16:19:07.050Z,5.40
2023-02-19T16:21:24.900Z,4.70
2023-02-19T16:23:38.620Z,4.80
2023-02-19T16:25:52.788Z,4.80
2023-02-19T16:28:12.781Z,4.90
2023-02-19T16:30:35.135Z,5.00
2023-02-19T16:32:48.138Z,5.40
2023-02-19T16:35:02.094Z,5.40
2023-02-19T16:37:41.182Z,4.20
2023-02-19T16:40:16.746Z,5.20
2023-02-19T16:42:30.415Z,4.70
2023-02-19T16:44:44.191Z,5.80
2023-02-19T16:47:00.347Z,5.40
2023-02-19T16:49:15.938Z,5.10
2023-02-19T16:51:31.510Z,5.40
2023-02-19T16:53:45.012Z,5.40
2023-02-19T16:55:58.493Z,5.70
2023-02-19T16:58:12.365Z,5.30
2023-02-19T17:00:28.373Z,6.40
2023-02-19T17:02:42.691Z,5.20
2023-02-19T17:04:57.468Z,5.20
2023-02-19T17:07:12.554Z,6.20
2023-02-19T17:09:26.403Z,4.80
2023-02-19T17:11:40.718Z,5.30
2023-02-19T17:13:54.963Z,4.70
2023-02-19T17:16:08.960Z,6.60
2023-02-19T17:18:23.079Z,6.20
2023-02-19T17:20:38.893Z,4.60
2023-02-19T17:22:52.184Z,4.90
2023-02-19T17:25:07.466Z,7.10
2023-02-19T17:27:21.347Z,5.90
2023-02-19T17:29:36.301Z,6.90
2023-02-19T17:31:49.674Z,6.10
2023-02-19T17:34:06.113Z,5.50
2023-02-19T17:36:23.250Z,6.90
2023-02-19T17:38:36.020Z,5.20
2023-02-19T17:40:49.357Z,6.90
2023-02-19T17:43:03.412Z,6.70
2023-02-19T17:45:18.326Z,5.40
2023-02-19T17:47:33.131Z,6.00
2023-02-19T17:49:48.984Z,6.80
2023-02-19T17:52:02.483Z,6.30
2023-02-19T17:54:15.633Z,6.00
2023-02-19T17:56:30.587Z,6.00
2023-02-19T17:58:44.259Z,4.80
2023-02-19T18:00:57.915Z,5.80
2023-02-19T18:03:12.211Z,5.80
2023-02-19T18:05:27.841Z,6.60
2023-02-19T18:07:42.191Z,5.90
2023-02-19T18:09:57.113Z,5.10
2023-02-19T18:12:12.297Z,7.30
2023-02-19T18:14:26.574Z,5.30
2023-02-19T18:16:39.783Z,6.30
2023-02-19T18:18:52.995Z,6.20
2023-02-19T18:21:06.095Z,6.20
2023-02-19T18:23:22.411Z,5.80
2023-02-19T18:25:37.592Z,5.70
2023-02-19T18:27:50.561Z,6.00
2023-02-19T18:30:04.238Z,5.80
2023-02-19T18:32:17.874Z,4.80
2023-02-19T18:34:31.195Z,6.70
2023-02-19T18:36:47.582Z,6.30
2023-02-19T18:39:00.474Z,7.00
2023-02-19T18:41:20.026Z,5.60
2023-02-19T18:43:34.013Z,5.50
2023-02-19T18:45:48.084Z,6.00
2023-02-19T18:48:02.133Z,5.60
2023-02-19T18:50:17.589Z,5.40
2023-02-19T18:52:32.030Z,4.70
2023-02-19T18:54:46.174Z,5.50
2023-02-19T18:57:01.684Z,5.50
2023-02-19T18:59:15.075Z,5.90
2023-02-19T19:01:30.126Z,5.60
2023-02-19T19:03:43.257Z,5.00
2023-02-19T19:05:57.303Z,5.90
2023-02-19T19:08:11.464Z,5.40
2023-02-19T19:10:25.732Z,5.60
2023-02-19T19:12:39.581Z,4.90
2023-02-19T19:14:53.666Z,4.80
2023-02-19T19:17:07.484Z,4.90
2023-02-19T19:19:20.788Z,5.20
2023-02-19T19:21:34.005Z,5.20
2023-02-19T19:23:48.060Z,6.40
2023-02-19T19:26:01.982Z,5.40
2023-02-19T19:28:14.811Z,5.80
2023-02-19T19:30:28.522Z,5.20
2023-02-19T19:32:41.131Z,6.30
2023-02-19T19:34:54.533Z,4.80
2023-02-19T19:37:07.986Z,5.30
2023-02-19T19:39:21.337Z,6.30
2023-02-19T19:41:34.066Z,6.00
2023-02-19T19:43:47.439Z,5.40
2023-02-19T19:46:00.311Z,6.00
2023-02-19T19:48:14.507Z,5.40
2023-02-19T19:50:27.853Z,5.90
2023-02-19T19:52:40.494Z,5.40
2023-02-19T19:54:55.189Z,6.10
2023-02-19T19:57:07.691Z,4.50
2023-02-19T19:59:21.787Z,5.30
2023-02-19T20:01:35.187Z,4.70
2023-02-19T20:03:48.686Z,5.60
2023-02-19T20:06:02.259Z,5.20
2023-02-19T20:08:14.972Z,5.00
2023-02-19T20:10:28.370Z,5.00
2023-02-19T20:12:42.509Z,4.40
2023-02-19T20:14:55.350Z,5.30
2023-02-19T20:17:10.756Z,4.90
2023-02-19T20:19:25.414Z,6.00
2023-02-19T20:21:38.174Z,6.40
2023-02-19T20:23:51.125Z,5.10
2023-02-19T20:26:06.338Z,5.00
2023-02-19T20:28:20.548Z,5.50
2023-02-19T20:30:35.238Z,6.40
2023-02-19T20:32:47.996Z,5.30
2023-02-19T20:35:00.724Z,5.10
2023-02-19T20:37:15.023Z,5.20
2023-02-19T20:39:31.901Z,5.30
2023-02-19T20:41:47.496Z,5.70
2023-02-19T20:44:00.323Z,4.30
2023-02-19T20:46:13.348Z,4.80
2023-02-19T20:48:26.320Z,5.30
2023-02-19T20:50:40.193Z,5.80
2023-02-19T20:52:54.363Z,5.60
2023-02-19T20:55:07.440Z,5.60
2023-02-19T20:57:20.983Z,5.50
2023-02-19T20:59:37.650Z,5.00
2023-02-19T21:01:51.862Z,5.60
2023-02-19T21:04:04.961Z,5.30
2023-02-19T21:06:18.083Z,5.70
2023-02-19T21:08:31.512Z,5.60
2023-02-19T21:10:45.404Z,5.10
2023-02-19T21:12:58.699Z,5.20
2023-02-19T21:15:13.099Z,5.60
2023-02-19T21:17:26.385Z,5.00
2023-02-19T21:19:39.822Z,4.60
2023-02-19T21:21:53.463Z,5.10
2023-02-19T21:24:08.385Z,5.50
2023-02-19T21:26:22.120Z,4.80
2023-02-19T21:28:34.660Z,5.30
2023-02-19T21:30:49.031Z,5.00
2023-02-19T21:33:01.674Z,4.50
2023-02-19T21:35:14.738Z,5.00
2023-02-19T21:37:27.554Z,5.00
2023-02-19T21:39:44.054Z,4.70
2023-02-19T21:41:56.805Z,4.60
2023-02-19T21:44:10.326Z,5.30
2023-02-19T21:46:26.114Z,5.40
2023-02-19T21:48:38.662Z,5.20
2023-02-19T21:50:51.554Z,5.30
2023-02-19T21:53:06.591Z,5.40
2023-02-19T21:55:21.406Z,6.10
2023-02-19T21:57:36.518Z,5.80
2023-02-19T21:59:49.109Z,5.50
2023-02-19T22:02:01.598Z,5.80
2023-02-19T22:04:17.078Z,3.70
2023-02-19T22:06:32.820Z,6.30
2023-02-19T22:08:45.504Z,4.10
2023-02-19T22:10:58.231Z,4.70
2023-02-19T22:13:10.847Z,4.70
2023-02-19T22:15:24.932Z,4.50
2023-02-19T22:17:38.294Z,4.60
2023-02-19T22:19:50.735Z,4.30
2023-02-19T22:22:03.411Z,5.20
2023-02-19T22:24:21.892Z,4.70
2023-02-19T22:26:35.718Z,5.20
2023-02-19T22:28:48.751Z,4.50
2023-02-19T22:31:02.345Z,5.10
2023-02-19T22:33:15.713Z,5.50
2023-02-19T22:35:29.190Z,4.70
2023-02-19T22:37:42.168Z,6.10
2023-02-19T22:39:57.027Z,4.40
2023-02-19T22:42:10.872Z,4.90
2023-02-19T22:44:24.914Z,5.30
2023-02-19T22:46:38.210Z,5.40
2023-02-19T22:48:51.980Z,4.70
2023-02-19T22:51:05.976Z,4.60
2023-02-19T22:53:19.585Z,3.80
2023-02-19T22:55:34.849Z,3.60
2023-02-19T22:57:48.777Z,4.80
2023-02-19T23:00:02.073Z,4.60
2023-02-19T23:02:14.606Z,4.40
2023-02-19T23:04:28.406Z,6.50
2023-02-19T23:06:45.367Z,5.20
2023-02-19T23:08:59.397Z,5.20
2023-02-19T23:11:12.621Z,5.10
2023-02-19T23:13:25.526Z,4.00
2023-02-19T23:15:39.155Z,4.40
2023-02-19T23:17:52.967Z,5.10
2023-02-19T23:20:06.943Z,5.50
2023-02-19T23:22:21.640Z,5.00
2023-02-19T23:24:35.045Z,4.20
2023-02-19T23:26:51.315Z,4.40
2023-02-19T23:29:04.056Z,4.20
2023-02-19T23:31:18.546Z,5.10
2023-02-19T23:33:32.692Z,5.00
2023-02-19T23:35:45.326Z,4.80
2023-02-19T23:37:59.468Z,4.40
2023-02-19T23:40:13.637Z,4.30
2023-02-19T23:42:27.522Z,4.70
2023-02-19T23:44:40.118Z,4.50
2023-02-19T23:46:54.261Z,4.50
2023-02-19T23:49:09.970Z,4.70
2023-02-19T23:51:24.196Z,5.40
2023-02-19T23:53:37.816Z,4.30
2023-02-19T23:55:52.753Z,4.50
2023-02-19T23:58:06.890Z,5.20
